createdAt,value
2018-08-16T00:00:24.225Z,72.76
2018-08-16T00:02:55.081Z,73.36
2018-08-16T00:05:24.023Z,72.68
2018-08-16T00:07:52.911Z,72.89
2018-08-16T00:10:21.784Z,73.59
2018-08-16T00:12:51.917Z,73.94
2018-08-16T00:15:22.247Z,73.48
2018-08-16T00:17:51.088Z,74.04
2018-08-16T00:20:19.959Z,74.08
2018-08-16T00:22:49.988Z,74.36
2018-08-16T00:25:20.370Z,74.38
2018-08-16T00:27:49.816Z,74.54
2018-08-16T00:30:19.984Z,74.40
2018-08-16T00:32:49.761Z,73.97
2018-08-16T00:35:19.370Z,74.63
2018-08-16T00:37:48.784Z,74.83
2018-08-16T00:40:18.718Z,76.17
2018-08-16T00:42:48.577Z,76.33
2018-08-16T00:45:18.443Z,75.75
2018-08-16T00:47:48.355Z,76.81
2018-08-16T00:50:18.721Z,76.60
2018-08-16T00:52:48.520Z,75.69
2018-08-16T00:55:20.047Z,76.71
2018-08-16T00:57:50.651Z,76.74
2018-08-16T01:00:19.466Z,76.90
2018-08-16T01:02:50.233Z,76.96
2018-08-16T01:05:20.015Z,77.07
2018-08-16T01:07:49.517Z,77.84
2018-08-16T01:10:18.771Z,77.79
2018-08-16T01:12:49.096Z,77.16
2018-08-16T01:15:18.759Z,78.37
2018-08-16T01:17:48.187Z,77.88
2018-08-16T01:20:17.533Z,78.33
2018-08-16T01:22:46.783Z,78.18
2018-08-16T01:25:16.437Z,78.62
2018-08-16T01:27:47.991Z,78.97
2018-08-16T01:30:17.455Z,78.63
2018-08-16T01:32:46.431Z,79.25
2018-08-16T01:35:15.317Z,79.17
2018-08-16T01:37:44.181Z,79.21
2018-08-16T01:40:13.063Z,80.19
2018-08-16T01:42:41.827Z,79.79
2018-08-16T01:45:10.763Z,79.77
2018-08-16T01:47:40.427Z,80.48
2018-08-16T01:51:12.060Z,80.58
2018-08-16T01:53:41.444Z,80.40
2018-08-16T01:56:11.266Z,79.78
2018-08-16T01:58:47.267Z,80.34
2018-08-16T02:01:17.389Z,80.40
2018-08-16T02:03:47.792Z,80.78
2018-08-16T02:06:18.344Z,79.95
2018-08-16T02:08:48.236Z,80.71
2018-08-16T02:11:17.379Z,79.96
2018-08-16T02:13:47.119Z,81.16
2018-08-16T02:16:16.876Z,81.01
2018-08-16T02:18:46.418Z,80.91
2018-08-16T02:21:15.362Z,80.85
2018-08-16T02:23:44.143Z,80.68
2018-08-16T02:26:13.197Z,80.92
2018-08-16T02:28:42.532Z,81.50
2018-08-16T02:31:11.363Z,81.06
2018-08-16T02:33:40.181Z,81.28
2018-08-16T02:36:09.143Z,81.80
2018-08-16T02:38:37.895Z,81.80
2018-08-16T02:41:07.100Z,81.19
2018-08-16T02:43:35.940Z,81.57
2018-08-16T02:46:04.787Z,82.16
2018-08-16T02:48:34.182Z,81.57
2018-08-16T02:51:02.970Z,81.50
2018-08-16T02:53:32.692Z,82.44
2018-08-16T02:56:02.183Z,81.68
2018-08-16T02:58:31.764Z,82.29
2018-08-16T03:01:00.604Z,81.42
2018-08-16T03:03:29.866Z,82.46
2018-08-16T03:05:58.860Z,81.32
2018-08-16T03:08:27.607Z,81.30
2018-08-16T03:10:56.535Z,81.93
2018-08-16T03:13:25.723Z,82.16
2018-08-16T03:15:54.856Z,80.98
2018-08-16T03:18:23.664Z,81.63
2018-08-16T03:20:52.419Z,81.36
2018-08-16T03:23:22.079Z,80.44
2018-08-16T03:25:50.894Z,80.52
2018-08-16T03:28:20.439Z,80.18
2018-08-16T03:30:49.407Z,80.18
2018-08-16T03:33:18.505Z,80.24
2018-08-16T03:35:47.480Z,79.79
2018-08-16T03:38:16.808Z,79.53
2018-08-16T03:40:45.803Z,79.98
2018-08-16T03:43:14.650Z,79.23
2018-08-16T03:45:43.422Z,78.92
2018-08-16T03:48:13.222Z,79.22
2018-08-16T03:50:42.005Z,78.27
2018-08-16T03:53:11.767Z,78.63
2018-08-16T03:55:41.219Z,78.54
2018-08-16T03:58:10.677Z,78.17
2018-08-16T04:00:39.450Z,78.30
2018-08-16T04:03:09.121Z,77.66
2018-08-16T04:05:37.894Z,78.60
2018-08-16T04:08:06.780Z,78.36
2018-08-16T04:10:36.347Z,78.63
2018-08-16T04:13:05.569Z,79.16
2018-08-16T04:15:34.384Z,78.81
2018-08-16T04:18:03.147Z,78.80
2018-08-16T04:20:31.869Z,79.07
2018-08-16T04:23:01.107Z,79.06
2018-08-16T04:25:30.033Z,78.86
2018-08-16T04:27:59.313Z,79.20
2018-08-16T04:30:28.126Z,79.12
2018-08-16T04:32:56.968Z,79.09
2018-08-16T04:35:25.827Z,78.80
2018-08-16T04:37:54.684Z,79.25
2018-08-16T04:40:23.695Z,78.80
2018-08-16T04:42:52.755Z,78.19
2018-08-16T04:45:21.517Z,79.08
2018-08-16T04:47:51.175Z,78.14
2018-08-16T04:50:19.975Z,78.44
2018-08-16T04:52:49.747Z,77.80
2018-08-16T04:55:19.667Z,78.20
2018-08-16T04:57:49.351Z,77.71
2018-08-16T05:00:18.599Z,77.37
2018-08-16T05:02:48.963Z,77.92
2018-08-16T05:05:17.983Z,77.66
2018-08-16T05:07:46.985Z,77.28
2018-08-16T05:10:16.104Z,77.14
2018-08-16T05:12:44.899Z,77.26
2018-08-16T05:15:14.271Z,77.37
2018-08-16T05:17:43.178Z,77.55
2018-08-16T05:20:13.383Z,77.78
2018-08-16T05:22:43.122Z,77.07
2018-08-16T05:25:11.983Z,76.88
2018-08-16T05:27:40.736Z,76.88
2018-08-16T05:30:12.172Z,76.44
2018-08-16T05:32:41.215Z,76.12
2018-08-16T05:35:10.351Z,76.02
2018-08-16T05:37:39.321Z,76.22
2018-08-16T05:40:09.609Z,75.34
2018-08-16T05:42:38.935Z,75.14
2018-08-16T05:45:08.374Z,75.33
2018-08-16T05:47:38.486Z,74.51
2018-08-16T05:50:09.652Z,74.94
2018-08-16T05:52:39.294Z,74.45
2018-08-16T05:55:09.079Z,74.45
2018-08-16T05:57:39.188Z,73.58
2018-08-16T06:00:12.331Z,73.29
2018-08-16T06:02:41.961Z,73.80
2018-08-16T06:05:12.248Z,73.84
2018-08-16T06:07:41.133Z,73.36
2018-08-16T06:10:11.158Z,73.45
2018-08-16T06:12:39.979Z,73.07
2018-08-16T06:15:09.580Z,73.35
2018-08-16T06:17:38.453Z,73.36
2018-08-16T06:20:10.840Z,73.28
2018-08-16T06:22:40.447Z,73.09
2018-08-16T06:25:11.203Z,72.70
2018-08-16T06:27:40.026Z,72.69
2018-08-16T06:30:15.731Z,72.55
2018-08-16T06:32:45.647Z,71.89
2018-08-16T06:35:14.547Z,71.83
2018-08-16T06:37:43.427Z,71.90
2018-08-16T06:40:17.549Z,70.91
2018-08-16T06:42:47.759Z,70.67
2018-08-16T06:45:16.735Z,70.85
2018-08-16T06:47:47.553Z,70.01
2018-08-16T06:50:16.795Z,69.66
2018-08-16T06:52:46.664Z,69.49
2018-08-16T06:55:16.533Z,69.09
2018-08-16T06:57:46.317Z,69.32
2018-08-16T07:00:15.529Z,68.94
2018-08-16T07:02:45.130Z,69.69
2018-08-16T07:05:14.355Z,69.38
2018-08-16T07:07:43.151Z,68.80
2018-08-16T07:10:13.153Z,68.19
2018-08-16T07:12:41.986Z,68.25
2018-08-16T07:15:13.351Z,67.87
2018-08-16T07:17:42.885Z,66.65
2018-08-16T07:20:11.803Z,66.88
2018-08-16T07:22:41.132Z,65.88
2018-08-16T07:25:10.440Z,66.73
2018-08-16T07:27:39.216Z,66.43
2018-08-16T07:30:09.551Z,66.39
2018-08-16T07:32:38.776Z,65.10
2018-08-16T07:35:08.810Z,65.80
2018-08-16T07:37:37.753Z,64.44
2018-08-16T07:40:07.172Z,64.53
2018-08-16T07:42:36.047Z,64.37
2018-08-16T07:45:06.013Z,63.07
2018-08-16T07:47:35.795Z,63.37
2018-08-16T07:50:05.660Z,63.69
2018-08-16T07:52:35.088Z,63.09
2018-08-16T07:55:04.649Z,62.33
2018-08-16T07:57:34.161Z,62.90
2018-08-16T08:00:03.690Z,61.63
2018-08-16T08:02:33.008Z,62.45
2018-08-16T08:05:02.531Z,61.06
2018-08-16T08:07:31.335Z,61.33
2018-08-16T08:10:00.148Z,61.63
2018-08-16T08:12:28.985Z,60.21
2018-08-16T08:14:57.751Z,60.37
2018-08-16T08:17:26.644Z,59.79
2018-08-16T08:19:55.534Z,59.21
2018-08-16T08:22:25.209Z,60.52
2018-08-16T08:24:54.061Z,59.23
2018-08-16T08:27:22.841Z,57.79
2018-08-16T08:29:51.631Z,59.41
2018-08-16T08:32:20.523Z,58.11
2018-08-16T08:34:49.567Z,59.55
2018-08-16T08:37:29.364Z,60.05
2018-08-16T08:39:58.215Z,59.85
2018-08-16T08:42:27.009Z,59.33
2018-08-16T08:44:56.013Z,60.24
2018-08-16T08:47:31.509Z,59.46
2018-08-16T08:50:00.344Z,57.32
2018-08-16T08:52:29.886Z,57.66
2018-08-16T08:55:10.254Z,57.22
2018-08-16T08:57:50.674Z,57.24
2018-08-16T09:00:19.505Z,55.89
2018-08-16T09:02:49.091Z,54.75
2018-08-16T09:05:18.176Z,55.27
2018-08-16T09:07:47.390Z,54.72
2018-08-16T09:10:52.124Z,53.75
2018-08-16T09:13:32.915Z,53.47
2018-08-16T09:16:03.521Z,53.65
2018-08-16T09:18:32.684Z,52.83
2018-08-16T09:21:01.463Z,52.17
2018-08-16T09:23:30.812Z,52.44
2018-08-16T09:25:59.907Z,52.07
2018-08-16T09:28:28.651Z,52.59
2018-08-16T09:31:08.369Z,52.21
2018-08-16T09:33:48.167Z,51.73
2018-08-16T09:36:17.178Z,51.27
2018-08-16T09:38:46.220Z,50.82
2018-08-16T09:41:15.023Z,51.43
2018-08-16T09:43:44.056Z,51.08
2018-08-16T09:46:53.387Z,51.34
2018-08-16T09:49:22.778Z,51.43
2018-08-16T09:51:52.416Z,51.33
2018-08-16T09:54:21.844Z,51.48
2018-08-16T09:56:51.603Z,51.65
2018-08-16T09:59:21.349Z,50.18
2018-08-16T10:01:50.146Z,50.28
2018-08-16T10:04:19.417Z,50.73
2018-08-16T10:06:48.489Z,50.43
2018-08-16T10:09:20.416Z,49.67
2018-08-16T10:11:49.687Z,49.77
2018-08-16T10:14:21.068Z,49.01
2018-08-16T10:16:49.890Z,49.01
2018-08-16T10:19:19.123Z,49.20
2018-08-16T10:21:48.227Z,48.37
2018-08-16T10:24:18.176Z,48.40
2018-08-16T10:26:47.324Z,47.53
2018-08-16T10:29:16.488Z,47.73
2018-08-16T10:31:45.445Z,47.32
2018-08-16T10:34:14.206Z,47.18
2018-08-16T10:36:43.172Z,47.69
2018-08-16T10:39:13.870Z,47.68
2018-08-16T10:41:42.840Z,48.10
2018-08-16T10:44:12.131Z,49.44
2018-08-16T10:46:40.965Z,48.62
2018-08-16T10:49:10.986Z,48.38
2018-08-16T10:51:40.571Z,48.61
2018-08-16T10:54:10.083Z,48.12
2018-08-16T10:56:39.464Z,48.04
2018-08-16T10:59:08.852Z,48.07
2018-08-16T11:01:37.702Z,48.47
2018-08-16T11:04:07.230Z,48.35
2018-08-16T11:06:36.035Z,49.17
2018-08-16T11:09:07.482Z,50.04
2018-08-16T11:11:36.224Z,49.45
2018-08-16T11:14:05.410Z,50.50
2018-08-16T11:16:34.394Z,50.14
2018-08-16T11:19:03.255Z,49.39
2018-08-16T11:21:31.993Z,49.28
2018-08-16T11:24:01.160Z,49.18
2018-08-16T11:26:29.906Z,48.92
2018-08-16T11:28:58.664Z,49.76
2018-08-16T11:31:27.492Z,48.36
2018-08-16T11:33:56.304Z,48.33
2018-08-16T11:36:25.271Z,47.95
2018-08-16T11:38:54.054Z,48.48
2018-08-16T11:41:22.767Z,47.90
2018-08-16T11:43:51.497Z,47.65
2018-08-16T11:46:20.273Z,48.36
2018-08-16T11:48:50.024Z,48.31
2018-08-16T11:51:19.804Z,47.59
2018-08-16T11:53:49.756Z,47.38
2018-08-16T11:56:19.338Z,46.64
2018-08-16T11:58:48.829Z,46.39
2018-08-16T12:01:18.371Z,46.03
2018-08-16T12:03:48.639Z,47.17
2018-08-16T12:06:17.711Z,46.57
2018-08-16T12:08:46.899Z,47.16
2018-08-16T12:11:16.065Z,46.58
2018-08-16T12:13:44.802Z,46.91
2018-08-16T12:16:13.669Z,46.62
2018-08-16T12:18:42.683Z,47.26
2018-08-16T12:21:11.464Z,46.50
2018-08-16T12:23:40.760Z,46.67
2018-08-16T12:26:09.558Z,48.18
2018-08-16T12:28:38.425Z,47.30
2018-08-16T12:31:07.284Z,46.53
2018-08-16T12:33:36.101Z,47.57
2018-08-16T12:36:05.884Z,46.88
2018-08-16T12:38:34.732Z,47.36
2018-08-16T12:41:04.110Z,47.03
2018-08-16T12:43:35.185Z,47.46
2018-08-16T12:46:04.044Z,46.72
2018-08-16T12:48:34.076Z,45.83
2018-08-16T12:51:03.451Z,45.41
2018-08-16T12:53:32.772Z,45.89
2018-08-16T12:56:02.187Z,45.57
2018-08-16T12:58:31.518Z,46.14
2018-08-16T13:01:00.305Z,45.21
2018-08-16T13:03:29.570Z,46.39
2018-08-16T13:05:58.356Z,46.64
2018-08-16T13:08:27.099Z,46.06
2018-08-16T13:10:55.947Z,47.07
2018-08-16T13:13:24.719Z,46.64
2018-08-16T13:15:53.645Z,47.06
2018-08-16T13:18:22.484Z,48.12
2018-08-16T13:20:51.330Z,47.30
2018-08-16T13:23:20.989Z,47.88
2018-08-16T13:25:49.833Z,47.02
2018-08-16T13:28:19.000Z,47.18
2018-08-16T13:30:48.169Z,46.92
2018-08-16T13:33:17.469Z,47.27
2018-08-16T13:35:46.534Z,47.09
2018-08-16T13:38:15.375Z,47.27
2018-08-16T13:40:44.120Z,46.74
2018-08-16T13:43:12.867Z,46.58
2018-08-16T13:45:41.627Z,47.02
2018-08-16T13:48:11.332Z,47.01
2018-08-16T13:50:41.081Z,45.30
2018-08-16T13:53:10.374Z,45.75
2018-08-16T13:55:39.864Z,45.16
2018-08-16T13:58:09.251Z,46.08
2018-08-16T14:00:38.066Z,45.72
2018-08-16T14:03:07.355Z,44.90
2018-08-16T14:05:36.140Z,45.86
2018-08-16T14:08:05.035Z,44.00
2018-08-16T14:10:33.871Z,44.22
2018-08-16T14:13:02.689Z,44.20
2018-08-16T14:15:31.609Z,45.19
2018-08-16T14:18:00.415Z,45.28
2018-08-16T14:20:29.214Z,46.57
2018-08-16T14:22:58.930Z,46.51
2018-08-16T14:25:27.679Z,46.52
2018-08-16T14:27:56.604Z,47.52
2018-08-16T14:30:25.634Z,47.36
2018-08-16T14:32:56.851Z,46.94
2018-08-16T14:35:25.750Z,46.58
2018-08-16T14:37:54.616Z,47.27
2018-08-16T14:40:23.779Z,46.82
2018-08-16T14:42:52.905Z,47.31
2018-08-16T14:48:53.988Z,47.23
2018-08-16T14:51:23.386Z,48.55
2018-08-16T14:53:52.628Z,48.37
2018-08-16T14:56:22.004Z,48.58
2018-08-16T14:58:51.432Z,48.67
2018-08-16T15:01:20.171Z,47.99
2018-08-16T15:03:49.572Z,48.96
2018-08-16T15:06:18.553Z,48.71
2018-08-16T15:08:47.539Z,48.86
2018-08-16T15:11:16.505Z,50.07
2018-08-16T15:13:46.309Z,50.11
2018-08-16T15:16:15.115Z,50.51
2018-08-16T15:18:43.922Z,50.58
2018-08-16T15:21:13.032Z,50.23
2018-08-16T15:23:42.236Z,51.46
2018-08-16T15:26:11.087Z,52.24
2018-08-16T15:28:39.909Z,53.21
2018-08-16T15:31:09.115Z,54.02
2018-08-16T15:33:37.909Z,56.36
2018-08-16T15:36:06.860Z,57.03
2018-08-16T15:38:36.653Z,57.86
2018-08-16T15:41:05.553Z,58.55
2018-08-16T15:43:35.039Z,58.19
2018-08-16T15:46:03.889Z,58.92
2018-08-16T15:48:33.263Z,59.34
2018-08-16T15:51:02.735Z,58.34
2018-08-16T15:53:32.267Z,59.17
2018-08-16T15:56:01.820Z,57.97
2018-08-16T15:58:31.310Z,58.39
2018-08-16T16:01:00.120Z,58.88
2018-08-16T16:03:29.494Z,58.66
2018-08-16T16:05:58.363Z,56.60
2018-08-16T16:08:27.040Z,56.31
2018-08-16T16:10:55.833Z,54.18
2018-08-16T16:13:24.615Z,52.97
2018-08-16T16:15:53.468Z,51.65
2018-08-16T16:18:22.295Z,51.46
2018-08-16T16:20:51.100Z,49.72
2018-08-16T16:23:20.398Z,49.51
2018-08-16T16:25:49.376Z,48.60
2018-08-16T16:28:19.526Z,48.29
2018-08-16T16:30:48.720Z,47.13
2018-08-16T16:33:17.812Z,46.27
2018-08-16T16:35:47.799Z,46.75
2018-08-16T16:38:16.815Z,47.45
2018-08-16T16:40:45.769Z,48.46
2018-08-16T16:43:14.727Z,49.23
2018-08-16T16:45:43.840Z,48.39
2018-08-16T16:48:13.079Z,48.47
2018-08-16T16:50:42.449Z,49.53
2018-08-16T16:53:11.916Z,49.13
2018-08-16T16:55:41.319Z,49.45
2018-08-16T16:58:10.556Z,49.90
2018-08-16T17:00:39.417Z,51.22
2018-08-16T17:03:08.730Z,51.09
2018-08-16T17:05:37.508Z,51.81
2018-08-16T17:08:06.372Z,51.85
2018-08-16T17:10:35.202Z,52.17
2018-08-16T17:13:04.029Z,52.19
2018-08-16T17:15:32.888Z,51.30
2018-08-16T17:18:01.733Z,52.68
2018-08-16T17:20:30.530Z,52.06
2018-08-16T17:23:00.459Z,51.97
2018-08-16T17:25:29.215Z,52.46
2018-08-16T17:27:58.472Z,52.33
2018-08-16T17:30:27.221Z,53.61
2018-08-16T17:32:56.111Z,52.60
2018-08-16T17:35:24.931Z,53.23
2018-08-16T17:37:53.655Z,53.44
2018-08-16T17:40:22.500Z,53.85
2018-08-16T17:42:51.306Z,54.58
2018-08-16T17:45:21.191Z,54.77
2018-08-16T17:47:50.541Z,54.01
2018-08-16T17:50:20.068Z,55.00
2018-08-16T17:52:50.099Z,55.26
2018-08-16T17:55:19.545Z,55.03
2018-08-16T17:57:48.927Z,55.87
2018-08-16T18:00:18.125Z,55.59
2018-08-16T18:02:47.831Z,55.51
2018-08-16T18:05:17.146Z,56.58
2018-08-16T18:07:46.596Z,56.77
2018-08-16T18:10:16.685Z,57.18
2018-08-16T18:12:45.471Z,57.01
2018-08-16T18:15:14.686Z,56.74
2018-08-16T18:17:43.472Z,56.99
2018-08-16T18:20:12.335Z,58.02
2018-08-16T18:22:42.047Z,58.19
2018-08-16T18:25:10.903Z,57.79
2018-08-16T18:27:40.220Z,58.48
2018-08-16T18:30:10.113Z,58.09
2018-08-16T18:32:38.895Z,58.83
2018-08-16T18:35:07.873Z,57.97
2018-08-16T18:37:36.615Z,58.27
2018-08-16T18:40:06.265Z,59.29
2018-08-16T18:42:35.116Z,59.42
2018-08-16T18:45:05.294Z,59.63
2018-08-16T18:47:34.521Z,59.21
2018-08-16T18:50:03.366Z,60.18
2018-08-16T18:52:32.753Z,60.09
2018-08-16T18:55:02.334Z,60.56
2018-08-16T18:57:31.711Z,59.81
2018-08-16T19:00:01.182Z,60.64
2018-08-16T19:02:30.580Z,60.61
2018-08-16T19:04:59.664Z,60.45
2018-08-16T19:07:28.437Z,60.57
2018-08-16T19:09:57.153Z,59.98
2018-08-16T19:12:25.952Z,59.97
2018-08-16T19:14:54.686Z,60.06
2018-08-16T19:17:23.680Z,60.17
2018-08-16T19:19:52.519Z,61.23
2018-08-16T19:22:21.894Z,60.73
2018-08-16T19:24:50.644Z,61.22
2018-08-16T19:27:20.099Z,60.20
2018-08-16T19:29:49.253Z,60.96
2018-08-16T19:32:19.683Z,61.77
2018-08-16T19:34:49.248Z,62.08
2018-08-16T19:38:21.379Z,62.49
2018-08-16T19:40:50.313Z,62.21
2018-08-16T19:43:19.995Z,61.92
2018-08-16T19:45:50.081Z,63.18
2018-08-16T19:48:19.599Z,62.61
2018-08-16T19:50:48.644Z,62.94
2018-08-16T19:53:18.875Z,63.56
2018-08-16T19:55:48.342Z,63.93
2018-08-16T19:58:19.149Z,64.04
2018-08-16T20:00:48.934Z,63.82
2018-08-16T20:03:19.115Z,64.74
2018-08-16T20:05:48.190Z,64.10
2018-08-16T20:08:19.183Z,64.50
2018-08-16T20:10:48.721Z,65.25
2018-08-16T20:13:18.196Z,65.00
2018-08-16T20:15:47.455Z,65.78
2018-08-16T20:18:17.163Z,65.10
2018-08-16T20:20:46.002Z,65.88
2018-08-16T20:23:15.429Z,66.15
2018-08-16T20:25:44.247Z,66.35
2018-08-16T20:28:13.005Z,66.21
2018-08-16T20:30:41.763Z,66.75
2018-08-16T20:33:10.668Z,67.03
2018-08-16T20:35:39.620Z,67.10
2018-08-16T20:38:08.475Z,67.74
2018-08-16T20:40:37.241Z,67.41
2018-08-16T20:43:06.112Z,68.15
2018-08-16T20:45:35.830Z,68.05
2018-08-16T20:48:05.438Z,67.53
2018-08-16T20:50:34.214Z,67.84
2018-08-16T20:53:04.062Z,67.39
2018-08-16T20:55:33.476Z,68.45
2018-08-16T20:58:03.469Z,68.13
2018-08-16T21:00:32.304Z,68.90
2018-08-16T21:03:02.239Z,68.04
2018-08-16T21:05:30.951Z,68.94
2018-08-16T21:07:59.767Z,68.08
2018-08-16T21:10:28.539Z,68.78
2018-08-16T21:12:57.589Z,68.99
2018-08-16T21:15:26.448Z,68.92
2018-08-16T21:17:55.256Z,69.16
2018-08-16T21:20:24.020Z,68.85
2018-08-16T21:22:54.060Z,68.16
2018-08-16T21:25:22.825Z,68.93
2018-08-16T21:27:52.323Z,68.68
2018-08-16T21:30:21.002Z,68.83
2018-08-16T21:32:50.048Z,69.07
2018-08-16T21:35:19.172Z,68.75
2018-08-16T21:37:50.168Z,68.95
2018-08-16T21:40:19.310Z,68.58
2018-08-16T21:42:49.440Z,68.99
2018-08-16T21:45:19.006Z,68.84
2018-08-16T21:47:49.484Z,68.89
2018-08-16T21:50:19.138Z,68.23
2018-08-16T21:52:49.297Z,68.60
2018-08-16T21:55:19.184Z,68.34
2018-08-16T21:57:48.810Z,68.99
2018-08-16T22:00:30.420Z,67.90
2018-08-16T22:03:00.090Z,68.60
2018-08-16T22:05:37.575Z,67.87
2018-08-16T22:08:14.637Z,67.53
2018-08-16T22:10:44.191Z,67.64
2018-08-16T22:13:13.060Z,66.69
2018-08-16T22:15:41.899Z,67.48
2018-08-16T22:18:10.683Z,67.26
2018-08-16T22:20:39.456Z,66.60
2018-08-16T22:23:09.019Z,66.81
2018-08-16T22:25:37.777Z,66.42
2018-08-16T22:28:06.531Z,66.03
2018-08-16T22:30:35.331Z,66.60
2018-08-16T22:33:04.345Z,66.56
2018-08-16T22:35:33.251Z,65.92
2018-08-16T22:38:03.584Z,65.69
2018-08-16T22:40:32.308Z,65.83
2018-08-16T22:43:01.526Z,66.07
2018-08-16T22:45:30.889Z,65.18
2018-08-16T22:48:00.678Z,66.19
2018-08-16T22:50:29.669Z,65.87
2018-08-16T22:52:59.562Z,65.36
2018-08-16T22:55:28.798Z,65.54
2018-08-16T22:57:58.486Z,66.23
2018-08-16T23:00:27.293Z,65.87
2018-08-16T23:02:57.757Z,65.90
2018-08-16T23:05:26.497Z,66.30
2018-08-16T23:07:55.281Z,66.71
2018-08-16T23:10:24.047Z,66.02
2018-08-16T23:12:53.010Z,66.29
2018-08-16T23:15:21.879Z,66.74
2018-08-16T23:17:50.727Z,66.96
2018-08-16T23:20:19.608Z,67.13
2018-08-16T23:22:50.099Z,66.78
2018-08-16T23:25:20.237Z,66.65
2018-08-16T23:27:49.795Z,67.40
2018-08-16T23:30:19.068Z,66.88
2018-08-16T23:32:49.455Z,67.57
2018-08-16T23:35:18.685Z,67.00
2018-08-16T23:37:48.309Z,67.59
2018-08-16T23:40:17.314Z,66.93
2018-08-16T23:42:46.567Z,67.43
2018-08-16T23:45:16.375Z,67.24
2018-08-16T23:47:56.576Z,67.63
2018-08-16T23:50:25.967Z,67.76
2018-08-16T23:52:55.545Z,67.42
2018-08-16T23:55:24.878Z,67.85
2018-08-16T23:57:54.295Z,67.77
